RYR77L LFOB-LEPA
Flight info
| Callsign | RYR77L |
|---|---|
| Flight time | N/A |
| Altitude | 39000 |
| Route | ERIXU DCT ETAMO DCT VALKU DCT ATSUP DCT MINSO DCT DEGOL DCT PPG DCT ALBER P84 LORES |
| Aircraft | B736/M-SDE2E3FGHIRWXY/LB1 |
Departure
| Time | 2026-04-26 16:42 |
|---|---|
| Airport | Beauvais-Tillé airport (LFOB) |
Arrival
| Time | N/A |
|---|---|
| Airport | Palma de Mallorca Airport (LEPA) |
| Time | Latitude | Longitude | Altitude | Speed | Heading |
|---|---|---|---|---|---|
| 2026-04-26 15:54 | 49.45956 | 2.11507 | 355 ft | 0 kts | 312° |
| 2026-04-26 16:34 | 49.45947 | 2.11522 | 363 ft | 4 kts | 311° |
| 2026-04-26 16:35 | 49.45930 | 2.11554 | 360 ft | 4 kts | 297° |
| 2026-04-26 16:35 | 49.45923 | 2.11591 | 359 ft | 4 kts | 260° |
| 2026-04-26 16:35 | 49.45931 | 2.11617 | 361 ft | 1 kts | 224° |
| 2026-04-26 16:35 | 49.45933 | 2.11621 | 361 ft | 0 kts | 224° |
| 2026-04-26 16:38 | 49.45927 | 2.11612 | 362 ft | 4 kts | 224° |
| 2026-04-26 16:38 | 49.45909 | 2.11585 | 359 ft | 8 kts | 224° |
| 2026-04-26 16:38 | 49.45842 | 2.11504 | 360 ft | 10 kts | 204° |
| 2026-04-26 16:39 | 49.45780 | 2.11524 | 358 ft | 9 kts | 147° |
| 2026-04-26 16:39 | 49.45732 | 2.11590 | 354 ft | 9 kts | 145° |
| 2026-04-26 16:39 | 49.45675 | 2.11589 | 357 ft | 9 kts | 203° |
| 2026-04-26 16:39 | 49.45644 | 2.11520 | 352 ft | 8 kts | 273° |
| 2026-04-26 16:40 | 49.45677 | 2.11453 | 352 ft | 8 kts | 291° |
| 2026-04-26 16:40 | 49.45677 | 2.11436 | 355 ft | 0 kts | 244° |
| 2026-04-26 16:40 | 49.45665 | 2.11427 | 355 ft | 8 kts | 195° |
| 2026-04-26 16:40 | 49.45587 | 2.11422 | 348 ft | 8 kts | 181° |
| 2026-04-26 16:41 | 49.45531 | 2.11389 | 345 ft | 10 kts | 216° |
| 2026-04-26 16:41 | 49.45477 | 2.11324 | 350 ft | 6 kts | 215° |
| 2026-04-26 16:41 | 49.45439 | 2.11319 | 343 ft | 6 kts | 160° |
| 2026-04-26 16:41 | 49.45404 | 2.11368 | 337 ft | 8 kts | 121° |
| 2026-04-26 16:42 | 49.45388 | 2.11409 | 338 ft | 7 kts | 122° |
| 2026-04-26 16:42 | 49.45230 | 2.11781 | 331 ft | 83 kts | 126° |
| 2026-04-26 16:42 | 49.44780 | 2.12865 | 326 ft | 153 kts | 117° |
| 2026-04-26 16:42 | 49.44239 | 2.14310 | 1124 ft | 144 kts | 114° |
| 2026-04-26 16:43 | 49.43956 | 2.15621 | 2152 ft | 128 kts | 77° |
| 2026-04-26 16:43 | 49.44480 | 2.16658 | 2457 ft | 142 kts | 19° |
| 2026-04-26 16:43 | 49.45587 | 2.16778 | 2733 ft | 177 kts | 3° |
| 2026-04-26 16:43 | 49.46846 | 2.16259 | 3018 ft | 210 kts | 325° |
| 2026-04-26 16:44 | 49.47684 | 2.14255 | 3326 ft | 246 kts | 285° |
| 2026-04-26 16:44 | 49.47964 | 2.11543 | 3957 ft | 263 kts | 280° |
| 2026-04-26 16:44 | 49.48304 | 2.08767 | 4935 ft | 264 kts | 283° |
| 2026-04-26 16:44 | 49.48633 | 2.05975 | 5832 ft | 269 kts | 271° |
| 2026-04-26 16:45 | 49.47929 | 2.02312 | 7053 ft | 276 kts | 237° |
| 2026-04-26 16:45 | 49.47068 | 2.00810 | 7680 ft | 280 kts | 220° |
| 2026-04-26 16:45 | 49.45460 | 1.99096 | 8650 ft | 284 kts | 214° |
| 2026-04-26 16:45 | 49.43775 | 1.97466 | 9621 ft | 288 kts | 214° |
| 2026-04-26 16:46 | 49.42092 | 1.95833 | 10576 ft | 293 kts | 214° |
| 2026-04-26 16:46 | 49.40311 | 1.94076 | 11019 ft | 317 kts | 214° |
| 2026-04-26 16:46 | 49.38424 | 1.92200 | 11729 ft | 328 kts | 214° |
| 2026-04-26 16:46 | 49.36502 | 1.90286 | 12708 ft | 330 kts | 214° |
| 2026-04-26 16:47 | 49.34566 | 1.88357 | 13738 ft | 333 kts | 214° |
| 2026-04-26 16:47 | 49.32612 | 1.86410 | 14663 ft | 337 kts | 214° |
| 2026-04-26 16:47 | 49.30634 | 1.84440 | 15556 ft | 340 kts | 214° |
| 2026-04-26 16:47 | 49.28634 | 1.82450 | 16423 ft | 344 kts | 214° |
| 2026-04-26 16:48 | 49.26621 | 1.80448 | 17153 ft | 347 kts | 215° |
| 2026-04-26 16:48 | 49.24610 | 1.78452 | 17786 ft | 352 kts | 215° |
| 2026-04-26 16:48 | 49.22522 | 1.76461 | 18464 ft | 356 kts | 209° |
| 2026-04-26 16:48 | 49.20146 | 1.75293 | 19068 ft | 363 kts | 193° |
| 2026-04-26 16:49 | 49.17652 | 1.74617 | 19695 ft | 365 kts | 192° |
| 2026-04-26 16:49 | 49.15131 | 1.73986 | 20279 ft | 369 kts | 192° |
| 2026-04-26 16:49 | 49.12587 | 1.73342 | 20853 ft | 372 kts | 192° |
| 2026-04-26 16:49 | 49.10028 | 1.72671 | 21443 ft | 375 kts | 192° |
| 2026-04-26 16:50 | 49.07453 | 1.71976 | 22006 ft | 378 kts | 192° |
| 2026-04-26 16:50 | 49.04857 | 1.71266 | 22563 ft | 380 kts | 192° |
| 2026-04-26 16:50 | 49.02271 | 1.70600 | 23087 ft | 385 kts | 188° |
| 2026-04-26 16:50 | 48.99581 | 1.70897 | 23581 ft | 395 kts | 167° |
| 2026-04-26 16:51 | 48.97052 | 1.72601 | 24074 ft | 402 kts | 149° |
| 2026-04-26 16:51 | 48.94972 | 1.75469 | 24538 ft | 408 kts | 134° |
| 2026-04-26 16:51 | 48.93111 | 1.78762 | 24973 ft | 412 kts | 132° |
| 2026-04-26 16:51 | 48.91275 | 1.82128 | 25359 ft | 416 kts | 131° |
| 2026-04-26 16:52 | 48.89419 | 1.85512 | 25756 ft | 419 kts | 132° |
| 2026-04-26 16:52 | 48.88170 | 1.87752 | 26044 ft | 420 kts | 133° |
| 2026-04-26 16:52 | 48.85638 | 1.92222 | 26584 ft | 423 kts | 133° |
| 2026-04-26 16:52 | 48.83798 | 1.95402 | 26937 ft | 425 kts | 137° |
| 2026-04-26 16:53 | 48.81442 | 1.98065 | 27263 ft | 422 kts | 156° |
| 2026-04-26 16:53 | 48.78694 | 1.99537 | 27688 ft | 417 kts | 172° |
| 2026-04-26 16:53 | 48.75820 | 1.99807 | 28087 ft | 414 kts | 184° |
| 2026-04-26 16:53 | 48.72935 | 1.99670 | 28434 ft | 416 kts | 185° |
| 2026-04-26 16:54 | 48.70028 | 1.99532 | 28749 ft | 420 kts | 184° |
| 2026-04-26 16:54 | 48.67095 | 1.99447 | 29083 ft | 422 kts | 183° |
| 2026-04-26 16:54 | 48.64162 | 2.00011 | 29355 ft | 432 kts | 165° |
| 2026-04-26 16:54 | 48.61378 | 2.01592 | 29729 ft | 434 kts | 161° |
| 2026-04-26 16:55 | 48.58574 | 2.03319 | 30044 ft | 437 kts | 160° |
| 2026-04-26 16:55 | 48.55858 | 2.05431 | 30271 ft | 444 kts | 148° |
| 2026-04-26 16:55 | 48.53487 | 2.08476 | 30527 ft | 451 kts | 135° |
| 2026-04-26 16:55 | 48.51620 | 2.12293 | 30809 ft | 455 kts | 121° |
| 2026-04-26 16:56 | 48.49691 | 2.21391 | 31331 ft | 461 kts | 99° |
| 2026-04-26 16:56 | 48.49067 | 2.26138 | 31521 ft | 462 kts | 111° |
| 2026-04-26 16:56 | 48.47533 | 2.30285 | 31699 ft | 460 kts | 132° |
| 2026-04-26 16:57 | 48.45130 | 2.33366 | 31953 ft | 453 kts | 153° |
| 2026-04-26 16:57 | 48.42208 | 2.34975 | 32226 ft | 445 kts | 172° |
| 2026-04-26 16:57 | 48.36128 | 2.35020 | 32828 ft | 435 kts | 194° |
| 2026-04-26 16:58 | 48.33173 | 2.34078 | 33148 ft | 433 kts | 195° |
| 2026-04-26 16:58 | 48.31232 | 2.33411 | 33377 ft | 432 kts | 195° |
| 2026-04-26 16:58 | 48.24394 | 2.31091 | 34174 ft | 430 kts | 195° |
| 2026-04-26 16:59 | 48.21511 | 2.30160 | 34456 ft | 429 kts | 195° |
| 2026-04-26 16:59 | 48.15668 | 2.28316 | 35295 ft | 428 kts | 194° |
| 2026-04-26 17:00 | 48.09851 | 2.26501 | 36155 ft | 427 kts | 193° |
| 2026-04-26 17:00 | 48.03902 | 2.26111 | 36938 ft | 430 kts | 180° |
| 2026-04-26 17:00 | 48.00918 | 2.26328 | 37337 ft | 429 kts | 180° |
| 2026-04-26 17:01 | 47.97932 | 2.26566 | 37699 ft | 429 kts | 180° |
| 2026-04-26 17:01 | 47.94948 | 2.26800 | 38078 ft | 429 kts | 180° |
| 2026-04-26 17:01 | 47.92015 | 2.27017 | 38472 ft | 428 kts | 180° |
| 2026-04-26 17:01 | 47.89046 | 2.27224 | 38839 ft | 427 kts | 180° |
| 2026-04-26 17:02 | 47.86075 | 2.27422 | 39098 ft | 427 kts | 180° |
| 2026-04-26 17:02 | 47.83096 | 2.27614 | 39207 ft | 431 kts | 180° |
| 2026-04-26 17:02 | 47.77069 | 2.27995 | 39195 ft | 433 kts | 180° |
| 2026-04-26 17:03 | 47.71111 | 2.28375 | 39178 ft | 425 kts | 180° |
| 2026-04-26 17:03 | 47.65247 | 2.28745 | 39184 ft | 424 kts | 180° |
| 2026-04-26 17:04 | 47.59347 | 2.29116 | 39164 ft | 425 kts | 180° |
| 2026-04-26 17:04 | 47.53410 | 2.29489 | 39161 ft | 428 kts | 180° |
| 2026-04-26 17:05 | 47.47446 | 2.29864 | 39162 ft | 429 kts | 180° |
| 2026-04-26 17:05 | 47.41513 | 2.30236 | 39155 ft | 430 kts | 180° |
| 2026-04-26 17:06 | 47.35527 | 2.30611 | 39160 ft | 430 kts | 180° |
| 2026-04-26 17:06 | 47.29545 | 2.30984 | 39150 ft | 430 kts | 180° |
| 2026-04-26 17:07 | 47.23572 | 2.31357 | 39153 ft | 430 kts | 180° |
| 2026-04-26 17:07 | 47.17642 | 2.31725 | 39155 ft | 429 kts | 180° |
| 2026-04-26 17:08 | 47.11690 | 2.32094 | 39150 ft | 428 kts | 180° |
| 2026-04-26 17:08 | 47.05752 | 2.32461 | 39158 ft | 427 kts | 180° |
| 2026-04-26 17:09 | 47.00820 | 2.32766 | 39152 ft | 426 kts | 180° |
| 2026-04-26 17:09 | 46.93901 | 2.33192 | 39156 ft | 426 kts | 180° |
| 2026-04-26 17:10 | 46.88021 | 2.33553 | 39154 ft | 425 kts | 180° |
| 2026-04-26 17:10 | 46.82153 | 2.34775 | 39151 ft | 430 kts | 165° |
| 2026-04-26 17:11 | 46.76553 | 2.37942 | 39153 ft | 432 kts | 160° |
| 2026-04-26 17:11 | 46.70984 | 2.41258 | 39154 ft | 433 kts | 160° |
| 2026-04-26 17:12 | 46.62628 | 2.46130 | 39152 ft | 434 kts | 161° |
| 2026-04-26 17:13 | 46.54205 | 2.50965 | 39155 ft | 434 kts | 161° |
| 2026-04-26 17:14 | 46.45765 | 2.55788 | 39156 ft | 435 kts | 161° |
| 2026-04-26 17:14 | 46.37346 | 2.60587 | 39153 ft | 436 kts | 161° |
| 2026-04-26 17:15 | 46.28877 | 2.65398 | 39155 ft | 436 kts | 161° |
| 2026-04-26 17:16 | 46.23228 | 2.68599 | 39156 ft | 436 kts | 161° |
| 2026-04-26 17:16 | 46.17575 | 2.71794 | 39159 ft | 436 kts | 161° |
| 2026-04-26 17:17 | 46.11963 | 2.74960 | 39161 ft | 436 kts | 161° |
| 2026-04-26 17:17 | 46.06313 | 2.78141 | 39161 ft | 436 kts | 161° |
| 2026-04-26 17:18 | 46.00669 | 2.81311 | 39159 ft | 436 kts | 161° |
| 2026-04-26 17:18 | 45.95005 | 2.84386 | 39156 ft | 435 kts | 162° |
| 2026-04-26 17:19 | 45.86518 | 2.88847 | 39153 ft | 435 kts | 162° |
| 2026-04-26 17:19 | 45.80838 | 2.91849 | 39161 ft | 435 kts | 162° |
| 2026-04-26 17:20 | 45.76099 | 2.94278 | 39149 ft | 434 kts | 167° |
| 2026-04-26 17:20 | 45.72147 | 2.95307 | 39155 ft | 430 kts | 179° |
| 2026-04-26 17:20 | 45.69159 | 2.95331 | 39164 ft | 428 kts | 183° |
| 2026-04-26 17:21 | 45.63235 | 2.95097 | 39151 ft | 429 kts | 184° |
| 2026-04-26 17:21 | 45.57264 | 2.94861 | 39159 ft | 429 kts | 184° |
| 2026-04-26 17:22 | 45.51287 | 2.94674 | 39156 ft | 430 kts | 183° |
| 2026-04-26 17:22 | 45.45300 | 2.94510 | 39164 ft | 431 kts | 183° |
| 2026-04-26 17:23 | 45.39303 | 2.94350 | 39165 ft | 431 kts | 183° |
| 2026-04-26 17:23 | 45.33338 | 2.94191 | 39164 ft | 432 kts | 183° |
| 2026-04-26 17:24 | 45.27325 | 2.94030 | 39158 ft | 433 kts | 183° |
| 2026-04-26 17:24 | 45.21303 | 2.93869 | 39166 ft | 433 kts | 183° |
| 2026-04-26 17:25 | 45.15275 | 2.93708 | 39158 ft | 434 kts | 183° |
| 2026-04-26 17:25 | 45.09282 | 2.93549 | 39158 ft | 433 kts | 183° |
| 2026-04-26 17:26 | 45.03257 | 2.93389 | 39154 ft | 433 kts | 183° |
| 2026-04-26 17:26 | 44.97226 | 2.93229 | 39158 ft | 433 kts | 183° |
| 2026-04-26 17:27 | 44.91146 | 2.93067 | 39163 ft | 444 kts | 182° |
| 2026-04-26 17:27 | 44.84936 | 2.92903 | 39161 ft | 452 kts | 182° |
| 2026-04-26 17:28 | 44.78636 | 2.92544 | 39153 ft | 453 kts | 185° |
| 2026-04-26 17:28 | 44.72338 | 2.92033 | 39145 ft | 454 kts | 185° |
| 2026-04-26 17:29 | 44.67105 | 2.91617 | 39139 ft | 452 kts | 185° |
| 2026-04-26 17:29 | 44.59775 | 2.91068 | 39138 ft | 450 kts | 184° |
| 2026-04-26 17:30 | 44.53586 | 2.90618 | 39138 ft | 447 kts | 184° |
| 2026-04-26 17:30 | 44.47388 | 2.90169 | 39137 ft | 445 kts | 185° |
| 2026-04-26 17:31 | 44.41219 | 2.89722 | 39144 ft | 443 kts | 184° |
| 2026-04-26 17:31 | 44.35069 | 2.89278 | 39145 ft | 442 kts | 185° |
| 2026-04-26 17:32 | 44.28928 | 2.88834 | 39139 ft | 442 kts | 184° |
| 2026-04-26 17:32 | 44.22830 | 2.88395 | 39141 ft | 442 kts | 185° |